createdAt,value
2022-08-26T00:01:28.996Z,9.03
2022-08-26T00:03:56.452Z,8.20
2022-08-26T00:06:23.463Z,8.23
2022-08-26T00:08:49.890Z,9.03
2022-08-26T00:11:16.705Z,8.33
2022-08-26T00:13:54.013Z,7.90
2022-08-26T00:16:20.768Z,8.33
2022-08-26T00:18:47.243Z,7.37
2022-08-26T00:21:13.655Z,7.80
2022-08-26T00:23:40.531Z,8.50
2022-08-26T00:26:08.453Z,9.17
2022-08-26T00:28:37.840Z,8.40
2022-08-26T00:31:04.498Z,7.67
2022-08-26T00:33:33.267Z,9.10
2022-08-26T00:36:00.547Z,8.97
2022-08-26T00:38:27.351Z,8.40
2022-08-26T00:40:56.270Z,8.80
2022-08-26T00:43:24.118Z,8.80
2022-08-26T00:45:55.230Z,8.40
2022-08-26T00:48:25.498Z,8.50
2022-08-26T00:50:58.473Z,8.10
2022-08-26T00:53:30.106Z,8.43
2022-08-26T00:56:06.060Z,9.03
2022-08-26T00:58:34.025Z,9.57
2022-08-26T01:01:00.782Z,8.93
2022-08-26T01:03:31.036Z,8.93
2022-08-26T01:06:00.164Z,8.57
2022-08-26T01:08:27.260Z,8.87
2022-08-26T01:10:58.108Z,8.97
2022-08-26T01:13:25.097Z,8.50
2022-08-26T01:15:55.875Z,9.67
2022-08-26T01:18:22.979Z,10.27
2022-08-26T01:21:12.335Z,10.50
2022-08-26T01:23:45.194Z,8.97
2022-08-26T01:26:21.912Z,9.43
2022-08-26T01:28:51.953Z,9.90
2022-08-26T01:31:22.386Z,10.40
2022-08-26T01:34:03.017Z,9.20
2022-08-26T01:36:30.561Z,9.30
2022-08-26T01:38:57.583Z,9.70
2022-08-26T01:41:27.591Z,9.10
2022-08-26T01:43:57.938Z,9.30
2022-08-26T01:46:26.828Z,9.13
2022-08-26T01:48:56.728Z,9.63
2022-08-26T01:51:26.234Z,8.83
2022-08-26T01:53:52.880Z,9.13
2022-08-26T01:56:22.786Z,9.37
2022-08-26T01:58:56.073Z,9.67
2022-08-26T02:01:28.869Z,10.60
2022-08-26T02:04:08.478Z,9.07
2022-08-26T02:06:37.601Z,9.00
2022-08-26T02:09:05.452Z,8.83
2022-08-26T02:11:33.339Z,9.33
2022-08-26T02:14:11.716Z,9.20
2022-08-26T02:16:42.309Z,8.70
2022-08-26T02:19:16.847Z,8.80
2022-08-26T02:21:44.285Z,8.80
2022-08-26T02:24:20.824Z,9.10
2022-08-26T02:26:48.583Z,10.20
2022-08-26T02:29:26.544Z,8.70
2022-08-26T02:31:55.673Z,9.40
2022-08-26T02:34:28.212Z,9.17
2022-08-26T02:37:03.368Z,10.13
2022-08-26T02:39:31.319Z,9.37
2022-08-26T02:41:58.118Z,10.27
2022-08-26T02:44:25.711Z,9.30
2022-08-26T02:46:52.832Z,10.07
2022-08-26T02:49:21.059Z,8.73
2022-08-26T02:51:49.432Z,9.90
2022-08-26T02:54:17.067Z,9.20
2022-08-26T02:56:44.045Z,10.30
2022-08-26T02:59:12.551Z,10.13
2022-08-26T03:01:40.423Z,8.83
2022-08-26T03:04:10.428Z,9.20
2022-08-26T03:06:38.170Z,9.03
2022-08-26T03:09:05.671Z,9.60
2022-08-26T03:11:33.302Z,9.40
2022-08-26T03:14:00.530Z,10.20
2022-08-26T03:16:32.663Z,9.10
2022-08-26T03:19:00.044Z,9.77
2022-08-26T03:21:27.096Z,9.30
2022-08-26T03:23:53.485Z,9.33
2022-08-26T03:26:20.263Z,9.63
2022-08-26T03:29:19.422Z,10.30
2022-08-26T03:31:46.937Z,9.53
2022-08-26T03:34:14.083Z,10.00
2022-08-26T03:36:41.672Z,9.80
2022-08-26T03:39:08.289Z,10.47
2022-08-26T03:41:35.852Z,10.07
2022-08-26T03:44:04.269Z,9.50
2022-08-26T03:46:35.389Z,9.87
2022-08-26T03:49:05.341Z,10.13
2022-08-26T03:51:33.248Z,8.80
2022-08-26T03:54:02.806Z,9.50
2022-08-26T03:56:30.978Z,9.83
2022-08-26T03:59:00.778Z,9.23
2022-08-26T04:01:29.460Z,9.33
2022-08-26T04:04:00.888Z,10.13
2022-08-26T04:06:39.297Z,10.10
2022-08-26T04:09:11.859Z,10.00
2022-08-26T04:11:39.562Z,9.87
2022-08-26T04:14:09.572Z,9.37
2022-08-26T04:16:36.503Z,10.30
2022-08-26T04:19:03.436Z,11.37
2022-08-26T04:21:29.900Z,10.23
2022-08-26T04:23:56.472Z,10.37
2022-08-26T04:26:25.136Z,10.57
2022-08-26T04:28:55.807Z,9.90
2022-08-26T04:31:23.122Z,10.83
2022-08-26T04:33:50.746Z,9.90
2022-08-26T04:36:19.943Z,10.33
2022-08-26T04:38:47.091Z,10.43
2022-08-26T04:41:15.015Z,9.87
2022-08-26T04:43:42.414Z,10.53
2022-08-26T04:46:10.308Z,9.70
2022-08-26T04:48:40.832Z,9.50
2022-08-26T04:51:07.664Z,10.10
2022-08-26T04:53:34.818Z,9.77
2022-08-26T04:56:01.410Z,10.00
2022-08-26T04:58:30.359Z,10.27
2022-08-26T05:00:57.105Z,10.00
2022-08-26T05:03:25.421Z,10.33
2022-08-26T05:05:53.678Z,9.80
2022-08-26T05:08:22.434Z,10.00
2022-08-26T05:10:52.469Z,10.30
2022-08-26T05:13:20.678Z,10.17
2022-08-26T05:15:48.037Z,9.57
2022-08-26T05:18:21.351Z,10.33
2022-08-26T05:20:54.539Z,10.33
2022-08-26T05:23:22.864Z,10.40
2022-08-26T05:25:58.901Z,10.67
2022-08-26T05:28:28.329Z,9.77
2022-08-26T05:30:55.925Z,9.73
2022-08-26T05:33:22.956Z,9.90
2022-08-26T05:35:49.356Z,10.40
2022-08-26T05:38:21.768Z,9.37
2022-08-26T05:40:52.579Z,9.47
2022-08-26T05:43:20.519Z,9.80
2022-08-26T05:45:49.484Z,10.10
2022-08-26T05:48:19.101Z,9.87
2022-08-26T05:50:52.338Z,9.97
2022-08-26T05:53:21.043Z,10.00
2022-08-26T05:55:53.073Z,9.47
2022-08-26T05:58:21.885Z,9.23
2022-08-26T06:01:00.839Z,9.40
2022-08-26T06:03:28.228Z,9.40
2022-08-26T06:05:54.894Z,10.40
2022-08-26T06:08:21.619Z,8.80
2022-08-26T06:10:53.170Z,10.50
2022-08-26T06:13:23.792Z,10.00
2022-08-26T06:15:51.334Z,9.53
2022-08-26T06:18:21.867Z,10.00
2022-08-26T06:20:57.133Z,9.40
2022-08-26T06:23:44.658Z,9.83
2022-08-26T06:26:14.711Z,9.60
2022-08-26T06:28:43.555Z,10.57
2022-08-26T06:31:12.192Z,10.63
2022-08-26T06:33:38.803Z,10.10
2022-08-26T06:36:06.647Z,9.73
2022-08-26T06:38:33.456Z,9.97
2022-08-26T06:41:00.889Z,9.57
2022-08-26T06:43:29.636Z,9.07
2022-08-26T06:46:08.775Z,9.47
2022-08-26T06:48:35.840Z,9.80
2022-08-26T06:51:09.652Z,10.37
2022-08-26T06:53:37.387Z,9.53
2022-08-26T06:56:06.648Z,9.90
2022-08-26T06:58:34.576Z,9.97
2022-08-26T07:01:09.094Z,9.77
2022-08-26T07:03:39.414Z,9.10
2022-08-26T07:06:06.580Z,9.27
2022-08-26T07:08:33.947Z,10.07
2022-08-26T07:11:05.432Z,9.27
2022-08-26T07:13:31.911Z,8.90
2022-08-26T07:15:58.951Z,9.40
2022-08-26T07:18:29.769Z,9.40
2022-08-26T07:20:56.186Z,9.50
2022-08-26T07:23:22.929Z,9.20
2022-08-26T07:25:49.564Z,9.77
2022-08-26T07:28:15.995Z,10.40
2022-08-26T07:30:42.569Z,10.00
2022-08-26T07:33:09.234Z,10.23
2022-08-26T07:35:37.808Z,10.80
2022-08-26T07:38:04.299Z,11.40
2022-08-26T07:40:33.940Z,9.40
2022-08-26T07:43:00.988Z,9.60
2022-08-26T07:45:27.743Z,9.50
2022-08-26T07:47:54.392Z,10.20
2022-08-26T07:50:22.332Z,10.63
2022-08-26T07:53:08.906Z,11.10
2022-08-26T07:55:37.470Z,11.43
2022-08-26T07:58:05.520Z,10.93
2022-08-26T08:00:33.308Z,10.57
2022-08-26T08:03:02.498Z,12.13
2022-08-26T08:05:33.507Z,11.73
2022-08-26T08:08:27.247Z,10.90
2022-08-26T08:10:50.172Z,12.53
2022-08-26T08:13:16.870Z,11.17
2022-08-26T08:15:45.823Z,10.40
2022-08-26T08:18:15.515Z,11.60
2022-08-26T08:20:47.724Z,11.27
2022-08-26T08:23:30.586Z,10.83
2022-08-26T08:26:11.299Z,10.23
2022-08-26T08:28:38.640Z,11.40
2022-08-26T08:31:05.565Z,11.30
2022-08-26T08:33:34.381Z,11.40
2022-08-26T08:36:01.494Z,10.60
2022-08-26T08:38:28.412Z,10.40
2022-08-26T08:40:54.897Z,11.03
2022-08-26T08:43:37.527Z,11.20
2022-08-26T08:46:10.449Z,12.90
2022-08-26T08:48:42.375Z,14.60
2022-08-26T08:51:33.569Z,15.23
2022-08-26T08:54:01.615Z,15.50
2022-08-26T08:56:41.753Z,16.80
2022-08-26T08:59:27.624Z,17.27
2022-08-26T09:02:25.246Z,18.23
2022-08-26T09:05:22.375Z,20.87
2022-08-26T09:08:19.896Z,23.40
2022-08-26T09:10:52.951Z,20.90
2022-08-26T09:13:24.959Z,22.27
2022-08-26T09:16:06.644Z,24.93
2022-08-26T09:18:51.420Z,22.60
2022-08-26T09:21:20.012Z,21.90
2022-08-26T09:23:49.610Z,24.30
2022-08-26T09:26:47.565Z,21.70
2022-08-26T09:29:29.954Z,24.03
2022-08-26T09:32:19.621Z,22.70
2022-08-26T09:34:56.577Z,20.80
2022-08-26T09:37:39.427Z,19.60
2022-08-26T09:40:13.596Z,18.70
2022-08-26T09:42:40.142Z,19.27
2022-08-26T09:45:10.405Z,18.27
2022-08-26T09:47:45.958Z,19.90
2022-08-26T09:50:35.950Z,17.40
2022-08-26T09:53:12.637Z,17.97
2022-08-26T09:55:42.002Z,17.70
2022-08-26T09:58:14.299Z,14.60
2022-08-26T10:00:56.084Z,12.60
2022-08-26T10:03:31.466Z,12.87
2022-08-26T10:06:01.396Z,8.90
2022-08-26T10:08:33.592Z,9.80
2022-08-26T10:11:05.398Z,11.03
2022-08-26T10:13:42.296Z,7.33
2022-08-26T10:16:28.576Z,8.53
2022-08-26T10:19:04.039Z,7.47
2022-08-26T10:21:38.255Z,6.60
2022-08-26T10:24:07.340Z,7.73
2022-08-26T10:27:02.405Z,5.83
2022-08-26T10:29:43.959Z,6.97
2022-08-26T10:32:17.181Z,7.27
2022-08-26T10:34:44.884Z,8.10
2022-08-26T10:37:18.218Z,8.37
2022-08-26T10:40:05.424Z,7.60
2022-08-26T10:42:37.561Z,8.70
2022-08-26T10:45:14.835Z,7.80
2022-08-26T10:48:07.193Z,8.90
2022-08-26T10:50:39.766Z,8.90
2022-08-26T10:53:34.402Z,9.50
2022-08-26T10:56:06.825Z,8.47
2022-08-26T10:58:57.943Z,8.10
2022-08-26T11:01:51.110Z,9.57
2022-08-26T11:04:43.395Z,8.50
2022-08-26T11:07:31.959Z,10.73
2022-08-26T11:10:06.710Z,9.77
2022-08-26T11:12:36.192Z,9.40
2022-08-26T11:15:08.813Z,11.17
2022-08-26T11:17:44.414Z,10.97
2022-08-26T11:20:31.543Z,9.60
2022-08-26T11:23:13.235Z,10.20
2022-08-26T11:25:57.841Z,10.70
2022-08-26T11:28:37.920Z,10.90
2022-08-26T11:31:09.566Z,11.60
2022-08-26T11:33:56.963Z,10.20
2022-08-26T11:36:41.876Z,9.10
2022-08-26T11:39:20.857Z,10.00
2022-08-26T11:41:52.894Z,10.00
2022-08-26T11:44:23.717Z,10.57
2022-08-26T11:47:01.291Z,10.33
2022-08-26T11:49:29.993Z,10.07
2022-08-26T11:52:11.237Z,9.97
2022-08-26T11:54:38.205Z,10.20
2022-08-26T11:57:11.726Z,9.80
2022-08-26T11:59:41.080Z,9.10
2022-08-26T12:02:15.315Z,9.70
2022-08-26T12:04:46.195Z,11.13
2022-08-26T12:07:12.775Z,9.97
2022-08-26T12:09:56.935Z,10.57
2022-08-26T12:12:34.546Z,10.70
2022-08-26T12:15:32.047Z,10.93
2022-08-26T12:18:16.944Z,11.37
2022-08-26T12:20:47.932Z,10.10
2022-08-26T12:23:44.241Z,10.23
2022-08-26T12:26:32.767Z,10.60
2022-08-26T12:29:12.894Z,10.60
2022-08-26T12:31:47.877Z,10.20
2022-08-26T12:34:18.077Z,8.97
2022-08-26T12:36:50.652Z,9.10
2022-08-26T12:39:33.199Z,9.57
2022-08-26T12:42:02.015Z,9.00
2022-08-26T12:45:01.128Z,9.57
2022-08-26T12:47:42.645Z,9.13
2022-08-26T12:50:25.498Z,10.73
2022-08-26T12:53:07.058Z,10.20
2022-08-26T12:55:36.501Z,10.90
2022-08-26T12:58:37.744Z,10.53
2022-08-26T13:01:04.263Z,10.77
2022-08-26T13:03:33.895Z,11.60
2022-08-26T13:06:22.238Z,11.20
2022-08-26T13:09:24.180Z,12.40
2022-08-26T13:11:52.845Z,11.80
2022-08-26T13:14:24.016Z,12.93
2022-08-26T13:16:51.953Z,12.40
2022-08-26T13:19:21.887Z,10.13
2022-08-26T13:21:52.858Z,12.03
2022-08-26T13:24:36.000Z,12.07
2022-08-26T13:27:06.188Z,12.20
2022-08-26T13:29:32.608Z,11.90
2022-08-26T13:31:59.557Z,12.30
2022-08-26T13:34:27.672Z,12.10
2022-08-26T13:36:56.218Z,10.57
2022-08-26T13:39:24.070Z,10.90
2022-08-26T13:41:51.478Z,10.23
2022-08-26T13:44:18.627Z,11.90
2022-08-26T13:49:16.843Z,10.20
2022-08-26T13:51:43.546Z,11.07
2022-08-26T13:54:09.949Z,9.87
2022-08-26T13:56:37.377Z,9.97
2022-08-26T13:59:05.478Z,10.80
2022-08-26T14:01:34.785Z,9.43
2022-08-26T14:04:02.570Z,9.80
2022-08-26T14:06:29.072Z,10.27
2022-08-26T14:08:55.504Z,9.83
2022-08-26T14:11:23.208Z,10.30
2022-08-26T14:13:50.312Z,9.50
2022-08-26T14:16:24.625Z,10.47
2022-08-26T14:18:51.524Z,9.90
2022-08-26T14:21:18.711Z,9.17
2022-08-26T14:23:45.214Z,10.20
2022-08-26T14:26:27.962Z,9.60
2022-08-26T14:28:57.357Z,9.40
2022-08-26T14:31:24.193Z,9.20
2022-08-26T14:33:50.737Z,9.70
2022-08-26T14:36:29.215Z,11.27
2022-08-26T14:38:58.279Z,10.13
2022-08-26T14:41:25.399Z,10.10
2022-08-26T14:43:59.920Z,10.53
2022-08-26T14:46:32.360Z,11.73
2022-08-26T14:49:02.033Z,10.93
2022-08-26T14:51:29.840Z,10.53
2022-08-26T14:54:14.617Z,9.20
2022-08-26T14:56:51.452Z,8.80
2022-08-26T14:59:21.931Z,9.80
2022-08-26T15:01:49.517Z,9.17
2022-08-26T15:04:16.661Z,8.63
2022-08-26T15:06:43.471Z,9.53
2022-08-26T15:09:10.604Z,8.43
2022-08-26T15:11:37.160Z,9.43
2022-08-26T15:14:04.214Z,7.80
2022-08-26T15:16:31.457Z,7.70
2022-08-26T15:19:00.949Z,10.17
2022-08-26T15:21:27.411Z,8.70
2022-08-26T15:23:54.011Z,7.73
2022-08-26T15:26:22.005Z,7.53
2022-08-26T15:28:48.513Z,8.27
2022-08-26T15:31:15.061Z,8.67
2022-08-26T15:33:42.658Z,7.30
2022-08-26T15:36:09.724Z,8.30
2022-08-26T15:38:39.942Z,8.30
2022-08-26T15:41:08.717Z,9.13
2022-08-26T15:43:37.221Z,7.97
2022-08-26T15:46:04.876Z,7.77
2022-08-26T15:48:31.736Z,8.37
2022-08-26T15:51:01.092Z,7.87
2022-08-26T15:53:30.117Z,8.53
2022-08-26T15:55:58.740Z,12.00
2022-08-26T15:58:27.139Z,13.57
2022-08-26T16:00:54.770Z,14.00
2022-08-26T16:03:21.576Z,15.67
2022-08-26T16:05:48.405Z,16.30
2022-08-26T16:08:15.372Z,19.73
2022-08-26T16:10:49.802Z,21.23
2022-08-26T16:13:19.195Z,21.30
2022-08-26T16:15:47.721Z,20.53
2022-08-26T16:18:15.380Z,22.00
2022-08-26T16:21:06.555Z,21.73
2022-08-26T16:23:38.683Z,20.97
2022-08-26T16:26:11.399Z,18.50
2022-08-26T16:28:38.371Z,17.53
2022-08-26T16:31:06.012Z,18.80
2022-08-26T16:33:32.418Z,17.00
2022-08-26T16:35:58.993Z,16.13
2022-08-26T16:38:25.380Z,16.93
2022-08-26T16:40:51.805Z,17.27
2022-08-26T16:43:18.256Z,17.10
2022-08-26T16:45:44.685Z,15.63
2022-08-26T16:48:11.406Z,18.77
2022-08-26T16:50:40.980Z,16.10
2022-08-26T16:55:40.096Z,16.23
2022-08-26T16:58:06.546Z,13.93
2022-08-26T17:00:34.183Z,10.80
2022-08-26T17:03:01.596Z,7.77
2022-08-26T17:05:28.956Z,7.70
2022-08-26T17:07:57.852Z,6.27
2022-08-26T17:10:26.860Z,6.37
2022-08-26T17:12:54.146Z,5.73
2022-08-26T17:15:23.579Z,5.77
2022-08-26T17:17:51.772Z,5.20
2022-08-26T17:20:19.772Z,6.00
2022-08-26T17:22:48.214Z,6.60
2022-08-26T17:25:19.531Z,5.80
2022-08-26T17:27:46.442Z,6.50
2022-08-26T17:30:13.753Z,7.70
2022-08-26T17:32:42.211Z,8.00
2022-08-26T17:35:10.630Z,7.60
2022-08-26T17:37:39.847Z,7.50
2022-08-26T17:40:11.790Z,8.43
2022-08-26T17:42:39.180Z,7.63
2022-08-26T17:45:06.677Z,8.83
2022-08-26T17:47:33.918Z,8.97
2022-08-26T17:50:01.340Z,8.43
2022-08-26T17:52:28.709Z,8.33
2022-08-26T17:54:59.097Z,7.80
2022-08-26T17:57:26.066Z,8.63
2022-08-26T17:59:53.674Z,8.40
2022-08-26T18:02:21.032Z,8.13
2022-08-26T18:04:48.780Z,7.27
2022-08-26T18:07:16.307Z,8.60
2022-08-26T18:09:43.199Z,8.33
2022-08-26T18:12:09.994Z,9.10
2022-08-26T18:14:37.299Z,9.30
2022-08-26T18:17:04.216Z,9.50
2022-08-26T18:19:31.362Z,9.80
2022-08-26T18:21:58.269Z,10.70
2022-08-26T18:24:24.826Z,11.27
2022-08-26T18:26:51.346Z,12.30
2022-08-26T18:29:19.613Z,13.20
2022-08-26T18:31:46.545Z,10.60
2022-08-26T18:34:15.593Z,10.23
2022-08-26T18:36:43.665Z,10.10
2022-08-26T18:39:12.731Z,10.50
2022-08-26T18:41:50.159Z,10.60
2022-08-26T18:44:19.283Z,10.00
2022-08-26T18:46:46.414Z,9.30
2022-08-26T18:49:15.382Z,10.37
2022-08-26T18:51:42.466Z,10.30
2022-08-26T18:54:10.233Z,11.20
2022-08-26T18:56:38.329Z,10.13
2022-08-26T18:59:07.140Z,9.70
2022-08-26T19:01:35.172Z,9.00
2022-08-26T19:04:04.175Z,8.90
2022-08-26T19:06:32.758Z,8.93
2022-08-26T19:09:00.045Z,10.23
2022-08-26T19:11:31.566Z,9.50
2022-08-26T19:13:59.396Z,9.73
2022-08-26T19:16:26.904Z,10.00
2022-08-26T19:18:56.380Z,9.43
2022-08-26T19:21:23.112Z,8.50
2022-08-26T19:23:50.115Z,9.10
2022-08-26T19:26:17.205Z,8.67
2022-08-26T19:28:43.648Z,9.20
2022-08-26T19:31:11.512Z,9.03
2022-08-26T19:33:43.959Z,8.57
2022-08-26T19:36:15.531Z,9.03
2022-08-26T19:38:42.803Z,9.03
2022-08-26T19:41:14.929Z,8.40
2022-08-26T19:43:42.153Z,8.40
2022-08-26T19:46:14.580Z,9.20
2022-08-26T19:48:44.077Z,9.57
2022-08-26T19:51:24.331Z,9.70
2022-08-26T19:53:52.026Z,9.20
2022-08-26T19:56:19.138Z,9.50
2022-08-26T19:58:46.408Z,9.20
2022-08-26T20:01:14.245Z,9.10
2022-08-26T20:03:41.542Z,9.03
2022-08-26T20:06:10.131Z,8.93
2022-08-26T20:08:39.182Z,8.57
2022-08-26T20:11:09.033Z,9.60
2022-08-26T20:13:36.461Z,9.47
2022-08-26T20:16:03.161Z,9.60
2022-08-26T20:19:05.148Z,9.53
2022-08-26T20:21:35.504Z,8.57
2022-08-26T20:24:26.489Z,9.87
2022-08-26T20:26:53.349Z,9.47
2022-08-26T20:29:19.976Z,10.00
2022-08-26T20:31:47.676Z,9.83
2022-08-26T20:34:16.807Z,10.00
2022-08-26T20:36:43.592Z,9.90
2022-08-26T20:39:10.911Z,10.17
2022-08-26T20:41:38.052Z,10.30
2022-08-26T20:44:05.407Z,11.20
2022-08-26T20:46:32.603Z,10.17
2022-08-26T20:48:59.043Z,10.03
2022-08-26T20:51:27.765Z,10.70
2022-08-26T20:53:54.727Z,10.13
2022-08-26T20:56:24.244Z,10.33
2022-08-26T20:58:53.231Z,11.00
2022-08-26T21:01:28.202Z,10.17
2022-08-26T21:03:56.846Z,10.60
2022-08-26T21:06:24.141Z,11.53
2022-08-26T21:08:50.781Z,10.80
2022-08-26T21:11:18.159Z,10.80
2022-08-26T21:14:04.011Z,10.60
2022-08-26T21:16:31.850Z,10.20
2022-08-26T21:19:00.419Z,9.63
2022-08-26T21:21:27.971Z,10.40
2022-08-26T21:23:54.740Z,10.67
2022-08-26T21:26:21.528Z,10.50
2022-08-26T21:28:48.690Z,10.10
2022-08-26T21:31:18.323Z,10.10
2022-08-26T21:33:45.149Z,9.07
2022-08-26T21:36:12.865Z,8.20
2022-08-26T21:38:40.518Z,8.20
2022-08-26T21:41:08.664Z,7.73
2022-08-26T21:43:36.218Z,7.83
2022-08-26T21:46:14.637Z,8.77
2022-08-26T21:48:50.339Z,8.80
2022-08-26T21:51:20.404Z,8.00
2022-08-26T21:53:47.001Z,7.80
2022-08-26T21:56:16.143Z,7.00
2022-08-26T21:58:42.923Z,8.07
2022-08-26T22:01:11.402Z,9.83
2022-08-26T22:03:38.087Z,8.13
2022-08-26T22:06:14.047Z,7.43
2022-08-26T22:08:40.416Z,8.63
2022-08-26T22:11:06.969Z,7.80
2022-08-26T22:13:36.864Z,7.33
2022-08-26T22:16:05.040Z,7.90
2022-08-26T22:18:32.239Z,6.93
2022-08-26T22:21:02.440Z,7.40
2022-08-26T22:23:29.319Z,7.70
2022-08-26T22:25:56.657Z,6.23
2022-08-26T22:28:23.400Z,8.67
2022-08-26T22:30:50.793Z,7.83
2022-08-26T22:33:17.927Z,7.70
2022-08-26T22:35:47.288Z,8.70
2022-08-26T22:38:13.975Z,7.37
2022-08-26T22:40:50.349Z,7.80
2022-08-26T22:43:18.284Z,7.23
2022-08-26T22:45:47.146Z,7.67
2022-08-26T22:48:16.534Z,8.50
2022-08-26T22:50:44.658Z,8.20
2022-08-26T22:53:12.195Z,8.17
2022-08-26T22:55:38.973Z,8.63
2022-08-26T22:58:05.881Z,8.67
2022-08-26T23:00:33.380Z,7.80
2022-08-26T23:03:00.824Z,8.07
2022-08-26T23:05:27.762Z,8.03
2022-08-26T23:07:54.297Z,8.33
2022-08-26T23:10:21.215Z,7.90
2022-08-26T23:12:47.588Z,7.50
2022-08-26T23:15:14.887Z,8.47
2022-08-26T23:17:42.704Z,8.00
2022-08-26T23:20:11.792Z,8.30
2022-08-26T23:22:39.307Z,9.17
2022-08-26T23:25:08.193Z,7.60
2022-08-26T23:27:39.958Z,8.90
2022-08-26T23:30:09.487Z,8.53
2022-08-26T23:32:35.867Z,8.27
2022-08-26T23:35:02.539Z,8.90
2022-08-26T23:37:33.692Z,9.20
2022-08-26T23:40:06.139Z,9.13
2022-08-26T23:42:32.571Z,8.87
2022-08-26T23:44:59.366Z,10.00
2022-08-26T23:47:26.371Z,9.73
2022-08-26T23:49:52.833Z,10.40
2022-08-26T23:52:37.911Z,10.53
2022-08-26T23:55:04.912Z,11.50
2022-08-26T23:57:32.668Z,10.90
2022-08-26T23:59:59.292Z,11.90
